sensor_id;sensor_type;location;lat;lon;timestamp;P1;durP1;ratioP1;P2;durP2;ratioP2
45039;SDS011;30778;53.574;7.770;2022-09-09T00:03:45;13.23;;;7.10;;
45039;SDS011;30778;53.574;7.770;2022-09-09T00:08:53;15.32;;;8.48;;
45039;SDS011;30778;53.574;7.770;2022-09-09T00:11:35;11.18;;;7.63;;
45039;SDS011;30778;53.574;7.770;2022-09-09T00:14:08;13.82;;;7.47;;
45039;SDS011;30778;53.574;7.770;2022-09-09T00:16:44;11.18;;;7.32;;
45039;SDS011;30778;53.574;7.770;2022-09-09T00:32:53;12.48;;;8.50;;
45039;SDS011;30778;53.574;7.770;2022-09-09T00:35:34;16.40;;;9.68;;
45039;SDS011;30778;53.574;7.770;2022-09-09T00:38:05;12.88;;;8.50;;
45039;SDS011;30778;53.574;7.770;2022-09-09T00:40:41;13.05;;;7.72;;
45039;SDS011;30778;53.574;7.770;2022-09-09T00:54:33;14.70;;;7.85;;
45039;SDS011;30778;53.574;7.770;2022-09-09T01:11:36;11.52;;;7.38;;
45039;SDS011;30778;53.574;7.770;2022-09-09T01:14:22;10.02;;;6.97;;
45039;SDS011;30778;53.574;7.770;2022-09-09T01:17:06;11.23;;;6.93;;
45039;SDS011;30778;53.574;7.770;2022-09-09T01:19:54;12.30;;;7.55;;
45039;SDS011;30778;53.574;7.770;2022-09-09T01:22:44;11.45;;;6.35;;
45039;SDS011;30778;53.574;7.770;2022-09-09T01:28:30;14.55;;;8.18;;
45039;SDS011;30778;53.574;7.770;2022-09-09T01:31:04;11.82;;;8.07;;
45039;SDS011;30778;53.574;7.770;2022-09-09T01:33:38;12.93;;;8.23;;
45039;SDS011;30778;53.574;7.770;2022-09-09T01:36:08;12.07;;;7.47;;
45039;SDS011;30778;53.574;7.770;2022-09-09T01:38:45;10.32;;;7.25;;
45039;SDS011;30778;53.574;7.770;2022-09-09T01:41:11;14.00;;;8.35;;
45039;SDS011;30778;53.574;7.770;2022-09-09T01:43:43;19.83;;;7.88;;
45039;SDS011;30778;53.574;7.770;2022-09-09T01:46:09;13.30;;;8.02;;
45039;SDS011;30778;53.574;7.770;2022-09-09T01:48:37;16.80;;;9.40;;
45039;SDS011;30778;53.574;7.770;2022-09-09T01:51:08;12.73;;;8.18;;
45039;SDS011;30778;53.574;7.770;2022-09-09T01:53:35;11.00;;;7.88;;
45039;SDS011;30778;53.574;7.770;2022-09-09T02:01:12;9.95;;;7.07;;
45039;SDS011;30778;53.574;7.770;2022-09-09T02:03:49;15.85;;;8.95;;
45039;SDS011;30778;53.574;7.770;2022-09-09T02:06:30;12.10;;;7.68;;
45039;SDS011;30778;53.574;7.770;2022-09-09T02:09:10;11.80;;;8.38;;
45039;SDS011;30778;53.574;7.770;2022-09-09T02:11:39;15.32;;;8.82;;
45039;SDS011;30778;53.574;7.770;2022-09-09T02:14:18;11.43;;;8.23;;
45039;SDS011;30778;53.574;7.770;2022-09-09T02:16:56;13.82;;;9.00;;
45039;SDS011;30778;53.574;7.770;2022-09-09T02:19:46;14.13;;;9.32;;
45039;SDS011;30778;53.574;7.770;2022-09-09T02:22:28;14.75;;;8.95;;
45039;SDS011;30778;53.574;7.770;2022-09-09T02:25:00;15.13;;;8.38;;
45039;SDS011;30778;53.574;7.770;2022-09-09T02:27:28;14.77;;;8.75;;
45039;SDS011;30778;53.574;7.770;2022-09-09T02:29:54;14.02;;;8.77;;
45039;SDS011;30778;53.574;7.770;2022-09-09T02:32:40;14.02;;;9.73;;
45039;SDS011;30778;53.574;7.770;2022-09-09T02:35:15;12.75;;;9.15;;
45039;SDS011;30778;53.574;7.770;2022-09-09T02:37:45;13.35;;;8.30;;
45039;SDS011;30778;53.574;7.770;2022-09-09T02:40:16;15.73;;;8.93;;
45039;SDS011;30778;53.574;7.770;2022-09-09T02:42:46;10.55;;;8.25;;
45039;SDS011;30778;53.574;7.770;2022-09-09T02:45:14;10.55;;;7.80;;
45039;SDS011;30778;53.574;7.770;2022-09-09T02:50:42;15.73;;;9.63;;
45039;SDS011;30778;53.574;7.770;2022-09-09T02:53:30;12.60;;;8.90;;
45039;SDS011;30778;53.574;7.770;2022-09-09T02:56:08;16.35;;;10.32;;
45039;SDS011;30778;53.574;7.770;2022-09-09T02:58:41;15.02;;;8.68;;
45039;SDS011;30778;53.574;7.770;2022-09-09T03:01:07;15.60;;;9.55;;
45039;SDS011;30778;53.574;7.770;2022-09-09T03:03:33;15.55;;;9.15;;
45039;SDS011;30778;53.574;7.770;2022-09-09T03:06:04;13.95;;;8.40;;
45039;SDS011;30778;53.574;7.770;2022-09-09T03:08:31;14.23;;;9.20;;
45039;SDS011;30778;53.574;7.770;2022-09-09T03:10:58;16.23;;;10.52;;
45039;SDS011;30778;53.574;7.770;2022-09-09T03:13:28;13.85;;;9.73;;
45039;SDS011;30778;53.574;7.770;2022-09-09T03:15:54;13.93;;;8.57;;
45039;SDS011;30778;53.574;7.770;2022-09-09T03:18:20;19.27;;;9.23;;
45039;SDS011;30778;53.574;7.770;2022-09-09T03:20:49;15.00;;;8.25;;
45039;SDS011;30778;53.574;7.770;2022-09-09T03:23:17;14.07;;;9.02;;
45039;SDS011;30778;53.574;7.770;2022-09-09T03:25:47;13.25;;;8.70;;
45039;SDS011;30778;53.574;7.770;2022-09-09T03:28:15;15.40;;;9.88;;
45039;SDS011;30778;53.574;7.770;2022-09-09T03:30:41;13.10;;;8.77;;
45039;SDS011;30778;53.574;7.770;2022-09-09T03:33:08;14.63;;;8.63;;
45039;SDS011;30778;53.574;7.770;2022-09-09T03:35:33;15.82;;;10.18;;
45039;SDS011;30778;53.574;7.770;2022-09-09T03:37:59;17.20;;;9.30;;
45039;SDS011;30778;53.574;7.770;2022-09-09T03:40:28;13.35;;;9.52;;
45039;SDS011;30778;53.574;7.770;2022-09-09T03:42:54;12.02;;;8.13;;
45039;SDS011;30778;53.574;7.770;2022-09-09T03:45:19;14.55;;;9.18;;
45039;SDS011;30778;53.574;7.770;2022-09-09T03:47:45;13.85;;;9.35;;
45039;SDS011;30778;53.574;7.770;2022-09-09T03:50:11;14.20;;;9.02;;
45039;SDS011;30778;53.574;7.770;2022-09-09T03:52:42;13.48;;;8.90;;
45039;SDS011;30778;53.574;7.770;2022-09-09T03:55:14;15.98;;;8.93;;
45039;SDS011;30778;53.574;7.770;2022-09-09T03:57:40;13.65;;;8.73;;
45039;SDS011;30778;53.574;7.770;2022-09-09T04:00:08;15.95;;;9.27;;
45039;SDS011;30778;53.574;7.770;2022-09-09T04:02:45;14.43;;;9.43;;
45039;SDS011;30778;53.574;7.770;2022-09-09T04:05:15;14.75;;;8.30;;
45039;SDS011;30778;53.574;7.770;2022-09-09T04:07:42;12.85;;;8.93;;
45039;SDS011;30778;53.574;7.770;2022-09-09T04:10:11;16.38;;;8.75;;
45039;SDS011;30778;53.574;7.770;2022-09-09T04:12:38;13.00;;;7.90;;
45039;SDS011;30778;53.574;7.770;2022-09-09T04:15:03;13.07;;;8.43;;
45039;SDS011;30778;53.574;7.770;2022-09-09T04:17:30;13.30;;;7.88;;
45039;SDS011;30778;53.574;7.770;2022-09-09T04:19:56;15.50;;;8.82;;
45039;SDS011;30778;53.574;7.770;2022-09-09T04:22:22;16.42;;;9.20;;
45039;SDS011;30778;53.574;7.770;2022-09-09T04:24:48;11.57;;;7.88;;
45039;SDS011;30778;53.574;7.770;2022-09-09T04:27:18;11.75;;;7.32;;
45039;SDS011;30778;53.574;7.770;2022-09-09T04:29:44;12.75;;;7.88;;
45039;SDS011;30778;53.574;7.770;2022-09-09T04:32:10;12.77;;;7.85;;
45039;SDS011;30778;53.574;7.770;2022-09-09T04:34:37;13.27;;;7.82;;
45039;SDS011;30778;53.574;7.770;2022-09-09T04:37:03;15.88;;;7.65;;
45039;SDS011;30778;53.574;7.770;2022-09-09T04:39:28;12.00;;;8.18;;
45039;SDS011;30778;53.574;7.770;2022-09-09T04:41:54;13.48;;;8.23;;
45039;SDS011;30778;53.574;7.770;2022-09-09T04:44:21;10.45;;;6.90;;
45039;SDS011;30778;53.574;7.770;2022-09-09T04:46:47;11.50;;;7.50;;
45039;SDS011;30778;53.574;7.770;2022-09-09T04:49:13;12.80;;;7.38;;
45039;SDS011;30778;53.574;7.770;2022-09-09T04:51:38;13.50;;;7.18;;
45039;SDS011;30778;53.574;7.770;2022-09-09T04:54:04;11.65;;;7.85;;
45039;SDS011;30778;53.574;7.770;2022-09-09T04:56:31;8.35;;;5.88;;
45039;SDS011;30778;53.574;7.770;2022-09-09T04:58:57;13.75;;;8.07;;
45039;SDS011;30778;53.574;7.770;2022-09-09T05:01:33;10.40;;;7.72;;
45039;SDS011;30778;53.574;7.770;2022-09-09T05:04:02;18.95;;;7.90;;
45039;SDS011;30778;53.574;7.770;2022-09-09T05:06:28;14.10;;;7.60;;
45039;SDS011;30778;53.574;7.770;2022-09-09T05:08:58;12.05;;;8.07;;
45039;SDS011;30778;53.574;7.770;2022-09-09T05:11:27;11.98;;;6.82;;
45039;SDS011;30778;53.574;7.770;2022-09-09T05:16:36;13.77;;;7.25;;
45039;SDS011;30778;53.574;7.770;2022-09-09T05:19:02;12.80;;;7.47;;
45039;SDS011;30778;53.574;7.770;2022-09-09T05:21:37;10.68;;;6.60;;
45039;SDS011;30778;53.574;7.770;2022-09-09T05:24:03;12.63;;;6.75;;
45039;SDS011;30778;53.574;7.770;2022-09-09T05:26:29;10.93;;;7.10;;
45039;SDS011;30778;53.574;7.770;2022-09-09T05:28:55;10.15;;;6.28;;
45039;SDS011;30778;53.574;7.770;2022-09-09T05:31:22;14.70;;;6.57;;
45039;SDS011;30778;53.574;7.770;2022-09-09T05:33:50;9.05;;;6.88;;
45039;SDS011;30778;53.574;7.770;2022-09-09T05:36:17;13.98;;;6.55;;
45039;SDS011;30778;53.574;7.770;2022-09-09T05:38:49;14.45;;;6.35;;
45039;SDS011;30778;53.574;7.770;2022-09-09T05:41:16;13.45;;;6.28;;
45039;SDS011;30778;53.574;7.770;2022-09-09T05:43:43;12.85;;;7.10;;
45039;SDS011;30778;53.574;7.770;2022-09-09T05:46:11;10.10;;;6.13;;
45039;SDS011;30778;53.574;7.770;2022-09-09T05:48:41;11.40;;;6.57;;
45039;SDS011;30778;53.574;7.770;2022-09-09T05:51:09;11.00;;;6.28;;
45039;SDS011;30778;53.574;7.770;2022-09-09T05:53:41;9.98;;;6.57;;
45039;SDS011;30778;53.574;7.770;2022-09-09T05:56:09;9.75;;;6.47;;
45039;SDS011;30778;53.574;7.770;2022-09-09T05:58:36;16.75;;;6.63;;
45039;SDS011;30778;53.574;7.770;2022-09-09T06:01:07;10.95;;;5.43;;
45039;SDS011;30778;53.574;7.770;2022-09-09T06:03:36;9.90;;;5.07;;
45039;SDS011;30778;53.574;7.770;2022-09-09T06:06:07;7.82;;;5.55;;
45039;SDS011;30778;53.574;7.770;2022-09-09T06:08:34;8.13;;;5.38;;
45039;SDS011;30778;53.574;7.770;2022-09-09T06:11:03;11.52;;;3.97;;
45039;SDS011;30778;53.574;7.770;2022-09-09T06:13:32;10.00;;;4.18;;
45039;SDS011;30778;53.574;7.770;2022-09-09T06:15:58;5.00;;;3.90;;
45039;SDS011;30778;53.574;7.770;2022-09-09T06:18:25;6.35;;;3.88;;
45039;SDS011;30778;53.574;7.770;2022-09-09T06:21:00;3.70;;;2.63;;
45039;SDS011;30778;53.574;7.770;2022-09-09T06:23:29;2.97;;;2.17;;
45039;SDS011;30778;53.574;7.770;2022-09-09T06:26:04;4.53;;;1.77;;
45039;SDS011;30778;53.574;7.770;2022-09-09T06:28:33;6.30;;;0.40;;
45039;SDS011;30778;53.574;7.770;2022-09-09T06:30:59;4.75;;;0.40;;
45039;SDS011;30778;53.574;7.770;2022-09-09T06:33:31;5.13;;;0.20;;
45039;SDS011;30778;53.574;7.770;2022-09-09T06:36:02;1.80;;;0.10;;
45039;SDS011;30778;53.574;7.770;2022-09-09T06:38:29;0.45;;;0.10;;
45039;SDS011;30778;53.574;7.770;2022-09-09T06:40:56;4.63;;;0.30;;
45039;SDS011;30778;53.574;7.770;2022-09-09T06:43:24;5.00;;;0.45;;
45039;SDS011;30778;53.574;7.770;2022-09-09T06:45:53;1.48;;;0.20;;
45039;SDS011;30778;53.574;7.770;2022-09-09T06:48:24;1.52;;;0.40;;
45039;SDS011;30778;53.574;7.770;2022-09-09T06:51:01;5.95;;;0.30;;
45039;SDS011;30778;53.574;7.770;2022-09-09T06:53:29;5.25;;;0.43;;
45039;SDS011;30778;53.574;7.770;2022-09-09T06:56:00;1.55;;;0.40;;
45039;SDS011;30778;53.574;7.770;2022-09-09T06:58:42;2.38;;;0.40;;
45039;SDS011;30778;53.574;7.770;2022-09-09T07:01:28;1.65;;;0.30;;
45039;SDS011;30778;53.574;7.770;2022-09-09T07:03:59;1.83;;;0.50;;
45039;SDS011;30778;53.574;7.770;2022-09-09T07:06:27;3.78;;;0.60;;
45039;SDS011;30778;53.574;7.770;2022-09-09T07:08:56;8.32;;;1.50;;
45039;SDS011;30778;53.574;7.770;2022-09-09T07:11:27;2.10;;;0.98;;
45039;SDS011;30778;53.574;7.770;2022-09-09T07:13:56;3.90;;;1.13;;
45039;SDS011;30778;53.574;7.770;2022-09-09T07:16:24;4.95;;;1.20;;
45039;SDS011;30778;53.574;7.770;2022-09-09T07:18:50;4.57;;;1.20;;
45039;SDS011;30778;53.574;7.770;2022-09-09T07:21:17;1.95;;;0.93;;
45039;SDS011;30778;53.574;7.770;2022-09-09T07:23:42;1.65;;;1.00;;
45039;SDS011;30778;53.574;7.770;2022-09-09T07:26:10;1.80;;;1.15;;
45039;SDS011;30778;53.574;7.770;2022-09-09T07:28:39;3.50;;;1.70;;
45039;SDS011;30778;53.574;7.770;2022-09-09T07:31:07;5.68;;;1.60;;
45039;SDS011;30778;53.574;7.770;2022-09-09T07:33:38;3.03;;;1.98;;
45039;SDS011;30778;53.574;7.770;2022-09-09T07:36:07;4.63;;;1.50;;
45039;SDS011;30778;53.574;7.770;2022-09-09T07:38:37;2.67;;;1.43;;
45039;SDS011;30778;53.574;7.770;2022-09-09T07:43:40;2.22;;;1.58;;
45039;SDS011;30778;53.574;7.770;2022-09-09T07:46:07;2.83;;;2.05;;
45039;SDS011;30778;53.574;7.770;2022-09-09T07:48:34;5.65;;;2.45;;
45039;SDS011;30778;53.574;7.770;2022-09-09T07:51:04;3.92;;;1.75;;
45039;SDS011;30778;53.574;7.770;2022-09-09T07:53:35;4.18;;;1.15;;
45039;SDS011;30778;53.574;7.770;2022-09-09T07:56:02;3.63;;;1.98;;
45039;SDS011;30778;53.574;7.770;2022-09-09T07:58:36;2.40;;;1.58;;
45039;SDS011;30778;53.574;7.770;2022-09-09T08:01:07;3.05;;;1.23;;
45039;SDS011;30778;53.574;7.770;2022-09-09T08:03:37;8.88;;;3.13;;
45039;SDS011;30778;53.574;7.770;2022-09-09T08:06:04;5.90;;;2.25;;
45039;SDS011;30778;53.574;7.770;2022-09-09T08:08:32;3.70;;;1.73;;
45039;SDS011;30778;53.574;7.770;2022-09-09T08:11:06;5.78;;;1.80;;
45039;SDS011;30778;53.574;7.770;2022-09-09T08:13:35;3.22;;;1.77;;
45039;SDS011;30778;53.574;7.770;2022-09-09T08:16:05;2.97;;;1.80;;
45039;SDS011;30778;53.574;7.770;2022-09-09T08:18:36;2.58;;;1.65;;
45039;SDS011;30778;53.574;7.770;2022-09-09T08:21:13;4.40;;;1.92;;
45039;SDS011;30778;53.574;7.770;2022-09-09T08:23:43;5.40;;;1.98;;
45039;SDS011;30778;53.574;7.770;2022-09-09T08:26:12;4.25;;;1.80;;
45039;SDS011;30778;53.574;7.770;2022-09-09T08:28:40;5.25;;;1.65;;
45039;SDS011;30778;53.574;7.770;2022-09-09T08:31:11;4.20;;;1.50;;
45039;SDS011;30778;53.574;7.770;2022-09-09T08:33:47;3.95;;;2.13;;
45039;SDS011;30778;53.574;7.770;2022-09-09T08:36:14;5.80;;;1.85;;
45039;SDS011;30778;53.574;7.770;2022-09-09T08:38:43;3.80;;;2.05;;
45039;SDS011;30778;53.574;7.770;2022-09-09T08:43:50;2.53;;;1.85;;
45039;SDS011;30778;53.574;7.770;2022-09-09T08:52:17;4.45;;;1.92;;
45039;SDS011;30778;53.574;7.770;2022-09-09T08:54:47;6.38;;;1.95;;
45039;SDS011;30778;53.574;7.770;2022-09-09T08:57:20;3.00;;;1.98;;
45039;SDS011;30778;53.574;7.770;2022-09-09T08:59:52;3.00;;;2.13;;
45039;SDS011;30778;53.574;7.770;2022-09-09T09:02:23;3.80;;;2.00;;
45039;SDS011;30778;53.574;7.770;2022-09-09T09:07:31;2.80;;;1.98;;
45039;SDS011;30778;53.574;7.770;2022-09-09T09:10:30;4.40;;;2.33;;
45039;SDS011;30778;53.574;7.770;2022-09-09T09:13:07;3.13;;;2.25;;
45039;SDS011;30778;53.574;7.770;2022-09-09T09:15:41;2.55;;;1.90;;
45039;SDS011;30778;53.574;7.770;2022-09-09T09:18:10;4.88;;;2.10;;
45039;SDS011;30778;53.574;7.770;2022-09-09T09:20:46;2.63;;;2.40;;
45039;SDS011;30778;53.574;7.770;2022-09-09T09:23:22;4.57;;;3.03;;
45039;SDS011;30778;53.574;7.770;2022-09-09T09:25:55;3.75;;;2.65;;
45039;SDS011;30778;53.574;7.770;2022-09-09T09:28:26;6.28;;;2.50;;
45039;SDS011;30778;53.574;7.770;2022-09-09T09:31:01;4.07;;;2.72;;
45039;SDS011;30778;53.574;7.770;2022-09-09T09:33:52;6.13;;;2.35;;
45039;SDS011;30778;53.574;7.770;2022-09-09T09:36:24;3.05;;;2.72;;
45039;SDS011;30778;53.574;7.770;2022-09-09T09:39:00;5.53;;;2.05;;
45039;SDS011;30778;53.574;7.770;2022-09-09T09:41:38;9.50;;;2.38;;
45039;SDS011;30778;53.574;7.770;2022-09-09T09:44:30;4.20;;;2.20;;
45039;SDS011;30778;53.574;7.770;2022-09-09T09:47:06;2.90;;;2.00;;
45039;SDS011;30778;53.574;7.770;2022-09-09T09:49:33;2.63;;;1.67;;
45039;SDS011;30778;53.574;7.770;2022-09-09T09:52:00;3.38;;;2.30;;
45039;SDS011;30778;53.574;7.770;2022-09-09T09:54:31;3.35;;;2.55;;
45039;SDS011;30778;53.574;7.770;2022-09-09T09:57:12;4.07;;;2.58;;
45039;SDS011;30778;53.574;7.770;2022-09-09T09:59:41;4.53;;;2.88;;
45039;SDS011;30778;53.574;7.770;2022-09-09T10:02:21;5.97;;;3.67;;
45039;SDS011;30778;53.574;7.770;2022-09-09T10:05:16;5.70;;;3.13;;
45039;SDS011;30778;53.574;7.770;2022-09-09T10:08:02;4.40;;;3.40;;
45039;SDS011;30778;53.574;7.770;2022-09-09T10:10:41;5.63;;;3.75;;
45039;SDS011;30778;53.574;7.770;2022-09-09T10:13:11;5.97;;;2.95;;
45039;SDS011;30778;53.574;7.770;2022-09-09T10:33:04;3.78;;;1.48;;
45039;SDS011;30778;53.574;7.770;2022-09-09T10:38:12;5.05;;;2.00;;
45039;SDS011;30778;53.574;7.770;2022-09-09T10:49:46;6.93;;;1.23;;
45039;SDS011;30778;53.574;7.770;2022-09-09T10:55:26;8.18;;;1.45;;
45039;SDS011;30778;53.574;7.770;2022-09-09T10:57:44;3.53;;;1.40;;
45039;SDS011;30778;53.574;7.770;2022-09-09T11:00:20;5.30;;;1.70;;
45039;SDS011;30778;53.574;7.770;2022-09-09T11:02:58;2.60;;;1.23;;
45039;SDS011;30778;53.574;7.770;2022-09-09T11:08:19;3.45;;;0.70;;
45039;SDS011;30778;53.574;7.770;2022-09-09T11:21:47;3.78;;;1.15;;
45039;SDS011;30778;53.574;7.770;2022-09-09T11:27:10;1.17;;;0.63;;
45039;SDS011;30778;53.574;7.770;2022-09-09T11:29:49;2.17;;;1.15;;
45039;SDS011;30778;53.574;7.770;2022-09-09T11:37:55;6.45;;;1.27;;
45039;SDS011;30778;53.574;7.770;2022-09-09T11:40:24;2.00;;;1.20;;
45039;SDS011;30778;53.574;7.770;2022-09-09T11:43:53;5.18;;;1.50;;
45039;SDS011;30778;53.574;7.770;2022-09-09T11:45:59;5.55;;;1.02;;
45039;SDS011;30778;53.574;7.770;2022-09-09T11:53:55;6.05;;;1.17;;
45039;SDS011;30778;53.574;7.770;2022-09-09T11:56:49;2.83;;;1.33;;
45039;SDS011;30778;53.574;7.770;2022-09-09T12:02:32;4.00;;;1.30;;
45039;SDS011;30778;53.574;7.770;2022-09-09T12:05:06;4.85;;;2.25;;
45039;SDS011;30778;53.574;7.770;2022-09-09T12:10:22;5.35;;;1.63;;
45039;SDS011;30778;53.574;7.770;2022-09-09T12:12:50;2.15;;;1.33;;
45039;SDS011;30778;53.574;7.770;2022-09-09T12:17:54;4.35;;;2.45;;
45039;SDS011;30778;53.574;7.770;2022-09-09T12:34:32;1.50;;;1.00;;
45039;SDS011;30778;53.574;7.770;2022-09-09T12:37:17;3.30;;;0.75;;
45039;SDS011;30778;53.574;7.770;2022-09-09T12:40:04;3.92;;;1.00;;
45039;SDS011;30778;53.574;7.770;2022-09-09T12:42:43;5.95;;;0.85;;
45039;SDS011;30778;53.574;7.770;2022-09-09T12:45:16;3.70;;;1.00;;
45039;SDS011;30778;53.574;7.770;2022-09-09T12:47:45;3.88;;;0.70;;
45039;SDS011;30778;53.574;7.770;2022-09-09T12:50:22;2.30;;;0.75;;
45039;SDS011;30778;53.574;7.770;2022-09-09T12:52:56;7.38;;;0.77;;
45039;SDS011;30778;53.574;7.770;2022-09-09T12:55:28;3.25;;;0.70;;
45039;SDS011;30778;53.574;7.770;2022-09-09T12:57:56;7.65;;;1.08;;
45039;SDS011;30778;53.574;7.770;2022-09-09T13:00:25;4.93;;;1.35;;
45039;SDS011;30778;53.574;7.770;2022-09-09T13:02:51;4.75;;;1.10;;
45039;SDS011;30778;53.574;7.770;2022-09-09T13:05:23;2.75;;;0.75;;
45039;SDS011;30778;53.574;7.770;2022-09-09T13:07:50;4.97;;;0.88;;
45039;SDS011;30778;53.574;7.770;2022-09-09T13:10:21;3.90;;;0.93;;
45039;SDS011;30778;53.574;7.770;2022-09-09T13:12:51;3.22;;;1.27;;
45039;SDS011;30778;53.574;7.770;2022-09-09T13:15:24;2.60;;;1.27;;
45039;SDS011;30778;53.574;7.770;2022-09-09T13:17:54;7.20;;;1.63;;
45039;SDS011;30778;53.574;7.770;2022-09-09T13:20:22;4.53;;;1.48;;
45039;SDS011;30778;53.574;7.770;2022-09-09T13:22:49;5.13;;;1.38;;
45039;SDS011;30778;53.574;7.770;2022-09-09T13:25:26;5.80;;;1.60;;
45039;SDS011;30778;53.574;7.770;2022-09-09T13:28:04;4.45;;;1.55;;
45039;SDS011;30778;53.574;7.770;2022-09-09T13:30:31;5.30;;;1.30;;
45039;SDS011;30778;53.574;7.770;2022-09-09T13:33:05;9.30;;;2.88;;
45039;SDS011;30778;53.574;7.770;2022-09-09T13:35:48;9.60;;;2.60;;
45039;SDS011;30778;53.574;7.770;2022-09-09T13:38:15;5.25;;;1.75;;
45039;SDS011;30778;53.574;7.770;2022-09-09T13:40:51;4.75;;;2.17;;
45039;SDS011;30778;53.574;7.770;2022-09-09T13:43:22;4.20;;;1.95;;
45039;SDS011;30778;53.574;7.770;2022-09-09T13:45:53;3.63;;;2.15;;
45039;SDS011;30778;53.574;7.770;2022-09-09T13:48:42;4.32;;;1.38;;
45039;SDS011;30778;53.574;7.770;2022-09-09T13:51:22;5.38;;;1.20;;
45039;SDS011;30778;53.574;7.770;2022-09-09T13:54:03;4.95;;;1.58;;
45039;SDS011;30778;53.574;7.770;2022-09-09T13:56:30;4.63;;;1.83;;
45039;SDS011;30778;53.574;7.770;2022-09-09T13:58:56;2.83;;;0.98;;
45039;SDS011;30778;53.574;7.770;2022-09-09T14:01:23;2.42;;;1.17;;
45039;SDS011;30778;53.574;7.770;2022-09-09T14:03:48;3.20;;;1.30;;
45039;SDS011;30778;53.574;7.770;2022-09-09T14:06:14;3.30;;;1.52;;
45039;SDS011;30778;53.574;7.770;2022-09-09T14:08:39;3.60;;;1.83;;
45039;SDS011;30778;53.574;7.770;2022-09-09T14:11:05;5.05;;;2.30;;
45039;SDS011;30778;53.574;7.770;2022-09-09T14:13:35;5.53;;;2.72;;
45039;SDS011;30778;53.574;7.770;2022-09-09T14:16:02;6.00;;;3.13;;
45039;SDS011;30778;53.574;7.770;2022-09-09T14:18:28;5.78;;;2.30;;
45039;SDS011;30778;53.574;7.770;2022-09-09T14:20:54;5.82;;;2.75;;
45039;SDS011;30778;53.574;7.770;2022-09-09T14:23:19;4.53;;;3.70;;
45039;SDS011;30778;53.574;7.770;2022-09-09T14:25:47;6.43;;;3.63;;
45039;SDS011;30778;53.574;7.770;2022-09-09T14:28:14;4.40;;;3.30;;
45039;SDS011;30778;53.574;7.770;2022-09-09T14:30:40;5.47;;;4.00;;
45039;SDS011;30778;53.574;7.770;2022-09-09T14:33:07;5.13;;;4.10;;
45039;SDS011;30778;53.574;7.770;2022-09-09T14:35:34;7.45;;;4.13;;
45039;SDS011;30778;53.574;7.770;2022-09-09T14:38:01;4.43;;;4.03;;
45039;SDS011;30778;53.574;7.770;2022-09-09T14:40:28;7.78;;;5.32;;
45039;SDS011;30778;53.574;7.770;2022-09-09T14:42:53;8.38;;;4.55;;
45039;SDS011;30778;53.574;7.770;2022-09-09T14:45:19;8.35;;;4.97;;
45039;SDS011;30778;53.574;7.770;2022-09-09T14:47:46;4.30;;;3.53;;
45039;SDS011;30778;53.574;7.770;2022-09-09T14:50:12;7.38;;;3.92;;
45039;SDS011;30778;53.574;7.770;2022-09-09T14:52:37;6.88;;;4.10;;
45039;SDS011;30778;53.574;7.770;2022-09-09T14:55:03;5.47;;;4.90;;
45039;SDS011;30778;53.574;7.770;2022-09-09T14:57:30;7.13;;;4.38;;
45039;SDS011;30778;53.574;7.770;2022-09-09T14:59:56;7.40;;;4.47;;
45039;SDS011;30778;53.574;7.770;2022-09-09T15:02:21;7.50;;;4.93;;
45039;SDS011;30778;53.574;7.770;2022-09-09T15:04:47;6.93;;;4.35;;
45039;SDS011;30778;53.574;7.770;2022-09-09T15:07:15;5.88;;;4.53;;
45039;SDS011;30778;53.574;7.770;2022-09-09T15:09:41;4.35;;;2.80;;
45039;SDS011;30778;53.574;7.770;2022-09-09T15:12:07;5.80;;;3.60;;
45039;SDS011;30778;53.574;7.770;2022-09-09T15:14:33;4.90;;;3.85;;
45039;SDS011;30778;53.574;7.770;2022-09-09T15:16:59;4.72;;;3.03;;
45039;SDS011;30778;53.574;7.770;2022-09-09T15:19:24;6.97;;;2.90;;
45039;SDS011;30778;53.574;7.770;2022-09-09T15:21:50;4.75;;;3.13;;
45039;SDS011;30778;53.574;7.770;2022-09-09T15:24:15;3.80;;;2.72;;
45039;SDS011;30778;53.574;7.770;2022-09-09T15:26:41;6.53;;;3.60;;
45039;SDS011;30778;53.574;7.770;2022-09-09T15:29:06;2.80;;;2.53;;
45039;SDS011;30778;53.574;7.770;2022-09-09T15:31:33;8.80;;;2.60;;
45039;SDS011;30778;53.574;7.770;2022-09-09T15:33:59;2.80;;;2.03;;
45039;SDS011;30778;53.574;7.770;2022-09-09T15:36:28;5.00;;;3.08;;
45039;SDS011;30778;53.574;7.770;2022-09-09T15:38:57;5.47;;;3.28;;
45039;SDS011;30778;53.574;7.770;2022-09-09T15:41:24;3.45;;;2.58;;
45039;SDS011;30778;53.574;7.770;2022-09-09T15:43:51;3.88;;;2.80;;
45039;SDS011;30778;53.574;7.770;2022-09-09T15:46:35;6.28;;;3.53;;
45039;SDS011;30778;53.574;7.770;2022-09-09T15:49:07;7.05;;;3.85;;
45039;SDS011;30778;53.574;7.770;2022-09-09T15:51:37;4.55;;;4.00;;
45039;SDS011;30778;53.574;7.770;2022-09-09T15:54:04;5.15;;;3.80;;
45039;SDS011;30778;53.574;7.770;2022-09-09T15:56:30;4.40;;;3.70;;
45039;SDS011;30778;53.574;7.770;2022-09-09T15:58:57;4.55;;;4.15;;
45039;SDS011;30778;53.574;7.770;2022-09-09T16:01:24;5.35;;;3.95;;
45039;SDS011;30778;53.574;7.770;2022-09-09T16:03:51;5.55;;;4.57;;
45039;SDS011;30778;53.574;7.770;2022-09-09T16:06:18;9.57;;;5.03;;
45039;SDS011;30778;53.574;7.770;2022-09-09T16:08:47;5.45;;;4.38;;
45039;SDS011;30778;53.574;7.770;2022-09-09T16:11:19;13.32;;;4.82;;
45039;SDS011;30778;53.574;7.770;2022-09-09T16:13:47;7.78;;;4.88;;
45039;SDS011;30778;53.574;7.770;2022-09-09T16:16:14;4.72;;;4.20;;
45039;SDS011;30778;53.574;7.770;2022-09-09T16:18:42;9.98;;;5.50;;
45039;SDS011;30778;53.574;7.770;2022-09-09T16:21:14;5.60;;;4.15;;
45039;SDS011;30778;53.574;7.770;2022-09-09T16:23:41;9.02;;;4.40;;
45039;SDS011;30778;53.574;7.770;2022-09-09T16:26:08;6.72;;;5.13;;
45039;SDS011;30778;53.574;7.770;2022-09-09T16:28:36;6.45;;;5.30;;
45039;SDS011;30778;53.574;7.770;2022-09-09T16:31:05;5.82;;;5.25;;
45039;SDS011;30778;53.574;7.770;2022-09-09T16:33:39;6.15;;;5.45;;
45039;SDS011;30778;53.574;7.770;2022-09-09T16:36:08;8.25;;;5.65;;
45039;SDS011;30778;53.574;7.770;2022-09-09T16:38:37;10.40;;;6.75;;
45039;SDS011;30778;53.574;7.770;2022-09-09T16:41:03;11.52;;;6.85;;
45039;SDS011;30778;53.574;7.770;2022-09-09T16:43:33;8.13;;;6.65;;
45039;SDS011;30778;53.574;7.770;2022-09-09T16:46:00;9.07;;;6.35;;
45039;SDS011;30778;53.574;7.770;2022-09-09T16:48:34;6.55;;;5.93;;
45039;SDS011;30778;53.574;7.770;2022-09-09T16:53:33;13.60;;;7.05;;
45039;SDS011;30778;53.574;7.770;2022-09-09T16:56:06;7.65;;;6.40;;
45039;SDS011;30778;53.574;7.770;2022-09-09T16:58:32;8.10;;;6.85;;
45039;SDS011;30778;53.574;7.770;2022-09-09T17:00:58;7.38;;;5.38;;
45039;SDS011;30778;53.574;7.770;2022-09-09T17:03:24;5.47;;;3.85;;
45039;SDS011;30778;53.574;7.770;2022-09-09T17:05:49;3.60;;;1.52;;
45039;SDS011;30778;53.574;7.770;2022-09-09T17:08:15;3.25;;;1.08;;
45039;SDS011;30778;53.574;7.770;2022-09-09T17:10:41;1.80;;;1.35;;
45039;SDS011;30778;53.574;7.770;2022-09-09T17:13:07;2.30;;;1.13;;
45039;SDS011;30778;53.574;7.770;2022-09-09T17:15:33;2.72;;;1.17;;
45039;SDS011;30778;53.574;7.770;2022-09-09T17:17:59;2.15;;;1.25;;
45039;SDS011;30778;53.574;7.770;2022-09-09T17:20:25;1.90;;;0.93;;
45039;SDS011;30778;53.574;7.770;2022-09-09T17:22:50;2.38;;;1.27;;
45039;SDS011;30778;53.574;7.770;2022-09-09T17:25:16;2.28;;;0.93;;
45039;SDS011;30778;53.574;7.770;2022-09-09T17:27:42;3.33;;;0.82;;
45039;SDS011;30778;53.574;7.770;2022-09-09T17:30:08;1.15;;;1.00;;
45039;SDS011;30778;53.574;7.770;2022-09-09T17:32:34;1.48;;;1.20;;
45039;SDS011;30778;53.574;7.770;2022-09-09T17:35:00;3.47;;;0.70;;
45039;SDS011;30778;53.574;7.770;2022-09-09T17:37:26;2.17;;;0.90;;
45039;SDS011;30778;53.574;7.770;2022-09-09T17:39:52;1.02;;;0.50;;